Olena, Ohio
Current Conditions -  °F | °C
As of 1:49 AM on Sunday 21 Dec 2014 (Local Time) from KLPR Reporting Station
Haze Haze  
Wind Chill: 27°   Ceiling: 2900
Heat Index: 27°   Visibility: 5mi
Dew Point: 25°   Wind: 0mph
Humidity: 93%   Direction: NA
Pressure: 30.28"   Gusts: NA
Location:  41.2186°N, 82.5851°W
Report Text: KLPR 210649Z AUTO 00000KT 5SM BR FEW024 OVC029 M03/M04 A3028 RMK AO2 TSNO
Loading
Personal Weather Stations






























Interactive Weather Map New forecast layout! Learn more

10-Day Weather Forecast

Advertisements
Track Severe Weather on mobile